Terminal Aerodrome Forecast
Issued by NWS Charleston, WV

Current Version | Previous Version | Graphics & Text | Print | Product List | Glossary On
Versions: 1 2 3 4 5 6 7 8 9 10 11 12 13 14 15 16 17 18 19 20 21 22 23 24 25 26 27
317
FTUS41 KRLX 152004 AAA
TAFPKB
TAF AMD
KPKB 152004Z 1520/1618 22009KT P6SM BKN025 OVC035
     FM152200 21009G18KT 6SM -SHRA OVC008
      TEMPO 1522/1524 2SM -SHRA OVC003
     FM160000 22010G20KT 6SM -RA OVC020
     FM160400 23010G22KT 3SM SHRA OVC015
     FM160600 22009G18KT 2SM SHRA BKN006 OVC020
     FM160900 25008G16KT 4SM -RA OVC010
     FM161100 29009G15KT P6SM OVC010=

USA.gov is the U.S. government's official web portal to all federal, state and local government web resources and services.